Time;durP1;ratioP1;P1;durP2;ratioP2;P2;SDS_P1;SDS_P2;PMS_P1;PMS_P2;Temp;Humidity;BMP_temperature;BMP_pressure;BME280_temperature;BME280_humidity;BME280_pressure;Samples;Min_cycle;Max_cycle;Signal;HPM_P1;HPM_P2
2022/12/15 00:38:40;;;;;;;3.88;1.67;;;;;;;;;;5061015;28;20044;-74
2022/12/15 00:41:06;;;;;;;3.00;1.80;;;;;;;;;;5058406;28;20044;-75
2022/12/15 00:43:33;;;;;;;1.98;1.50;;;;;;;;;;5062526;28;20048;-74
2022/12/15 00:48:47;;;;;;;7.32;2.05;;;;;;;;;;5059978;28;20052;-74
2022/12/15 00:51:14;;;;;;;4.70;1.67;;;;;;;;;;5062260;28;20066;-74
2022/12/15 01:21:12;;;;;;;5.85;1.70;;;;;;;;;;5062080;28;20369;-74
2022/12/15 01:23:39;;;;;;;5.43;1.67;;;;;;;;;;5063212;28;20510;-74
2022/12/15 01:26:07;;;;;;;2.58;1.70;;;;;;;;;;5068306;28;20095;-74
2022/12/15 01:28:33;;;;;;;4.25;1.60;;;;;;;;;;5066452;28;20044;-74
2022/12/15 01:30:59;;;;;;;4.32;1.50;;;;;;;;;;5057816;28;20052;-74
2022/12/15 01:33:25;;;;;;;2.25;1.70;;;;;;;;;;5067492;28;20036;-74
2022/12/15 01:35:56;;;;;;;3.70;1.42;;;;;;;;;;5065313;28;20488;-74
2022/12/15 01:38:22;;;;;;;4.90;1.60;;;;;;;;;;5061287;28;20504;-74
2022/12/15 01:40:53;;;;;;;4.28;1.50;;;;;;;;;;5068343;28;20448;-74
2022/12/15 01:43:21;;;;;;;5.30;1.55;;;;;;;;;;5065517;28;20381;-74
2022/12/15 01:45:49;;;;;;;3.33;1.70;;;;;;;;;;5068845;28;20048;-75
2022/12/15 01:48:19;;;;;;;3.70;1.67;;;;;;;;;;5058603;28;20051;-74
2022/12/15 01:50:48;;;;;;;3.55;1.35;;;;;;;;;;5067315;28;20520;-74
2022/12/15 01:53:15;;;;;;;7.20;1.85;;;;;;;;;;5065035;28;20048;-75
2022/12/15 01:55:42;;;;;;;4.80;1.70;;;;;;;;;;5068765;28;20040;-74
2022/12/15 01:58:09;;;;;;;5.00;1.77;;;;;;;;;;5067528;28;20041;-74
2022/12/15 02:00:36;;;;;;;9.05;2.03;;;;;;;;;;5067489;28;20051;-74
2022/12/15 02:03:04;;;;;;;5.13;1.80;;;;;;;;;;5065858;28;20097;-74
2022/12/15 02:05:30;;;;;;;4.43;1.85;;;;;;;;;;5064714;28;20076;-74
2022/12/15 02:07:57;;;;;;;4.65;1.73;;;;;;;;;;5055552;28;20136;-74
2022/12/15 02:10:26;;;;;;;8.27;1.80;;;;;;;;;;5070736;28;20579;-74
2022/12/15 02:12:52;;;;;;;4.95;1.65;;;;;;;;;;5065944;28;20492;-74
2022/12/15 02:15:34;;;;;;;5.55;1.73;;;;;;;;;;5070256;28;20135;-75
2022/12/15 02:18:20;;;;;;;5.50;1.80;;;;;;;;;;5068132;28;20047;-74
2022/12/15 02:21:01;;;;;;;3.58;1.40;;;;;;;;;;5070932;28;20048;-75
2022/12/15 02:23:37;;;;;;;4.95;1.80;;;;;;;;;;5054224;28;20496;-75
2022/12/15 02:26:21;;;;;;;3.72;1.92;;;;;;;;;;5063563;28;20048;-74
2022/12/15 02:29:06;;;;;;;7.72;1.80;;;;;;;;;;5058818;28;20572;-75
2022/12/15 02:31:49;;;;;;;8.05;1.95;;;;;;;;;;5062915;28;20040;-74
2022/12/15 02:34:33;;;;;;;5.18;2.05;;;;;;;;;;5068035;28;20057;-74
2022/12/15 02:37:08;;;;;;;4.57;1.90;;;;;;;;;;5051731;28;20083;-74
2022/12/15 02:39:34;;;;;;;2.65;1.75;;;;;;;;;;5065040;28;20044;-75
2022/12/15 02:42:00;;;;;;;5.15;1.80;;;;;;;;;;5066707;28;20040;-75
2022/12/15 02:44:30;;;;;;;4.40;1.50;;;;;;;;;;5068015;28;20055;-75
2022/12/15 02:47:08;;;;;;;4.40;1.70;;;;;;;;;;5068941;28;20036;-74
2022/12/15 02:49:43;;;;;;;4.57;1.58;;;;;;;;;;5070616;28;20408;-74
2022/12/15 02:52:25;;;;;;;4.28;1.50;;;;;;;;;;5071705;28;20048;-74
2022/12/15 02:55:00;;;;;;;4.90;1.80;;;;;;;;;;5068793;28;20036;-74
2022/12/15 02:57:39;;;;;;;5.68;1.65;;;;;;;;;;5061672;28;20045;-74
2022/12/15 03:00:06;;;;;;;7.40;1.98;;;;;;;;;;5069744;28;20048;-74
2022/12/15 03:02:36;;;;;;;8.32;1.90;;;;;;;;;;5070637;28;20448;-74
2022/12/15 03:05:02;;;;;;;4.40;1.65;;;;;;;;;;5071475;28;20052;-74
2022/12/15 03:07:28;;;;;;;8.20;1.98;;;;;;;;;;5065053;28;20042;-74
2022/12/15 03:09:56;;;;;;;5.43;2.03;;;;;;;;;;5064754;28;20044;-75
2022/12/15 03:12:22;;;;;;;3.65;1.98;;;;;;;;;;5062818;28;20041;-74
2022/12/15 03:14:48;;;;;;;3.33;1.88;;;;;;;;;;5065808;28;20403;-75
2022/12/15 03:17:14;;;;;;;3.70;1.65;;;;;;;;;;5072537;28;20068;-74
2022/12/15 03:19:40;;;;;;;5.88;1.70;;;;;;;;;;5070820;28;20079;-74
2022/12/15 03:22:06;;;;;;;4.45;1.90;;;;;;;;;;5073793;28;20107;-75
2022/12/15 03:24:32;;;;;;;7.72;2.13;;;;;;;;;;5062289;28;20082;-74
2022/12/15 03:26:58;;;;;;;1.70;1.60;;;;;;;;;;5066687;28;20045;-75
2022/12/15 03:29:24;;;;;;;4.97;1.60;;;;;;;;;;5066185;28;20057;-74
2022/12/15 03:31:50;;;;;;;5.53;1.75;;;;;;;;;;5059908;28;20043;-74
2022/12/15 03:34:17;;;;;;;6.72;1.88;;;;;;;;;;5068769;28;20105;-74
2022/12/15 03:36:43;;;;;;;8.20;1.95;;;;;;;;;;5063423;28;20053;-74
2022/12/15 03:39:09;;;;;;;10.95;2.10;;;;;;;;;;5070380;28;20036;-74
2022/12/15 03:41:35;;;;;;;9.68;1.83;;;;;;;;;;5070196;28;20045;-75
2022/12/15 03:44:01;;;;;;;6.43;1.90;;;;;;;;;;5068963;28;20053;-74
2022/12/15 03:46:27;;;;;;;5.05;1.90;;;;;;;;;;5071457;28;20045;-74
2022/12/15 03:48:53;;;;;;;10.77;2.92;;;;;;;;;;5062152;28;20040;-75
2022/12/15 03:51:22;;;;;;;8.77;2.20;;;;;;;;;;5071143;28;20477;-75
2022/12/15 03:53:52;;;;;;;9.88;2.10;;;;;;;;;;5061812;28;20170;-75
2022/12/15 03:56:18;;;;;;;5.20;2.15;;;;;;;;;;5065644;28;20033;-74
2022/12/15 03:58:44;;;;;;;12.10;2.90;;;;;;;;;;5073046;28;20527;-74
2022/12/15 04:01:10;;;;;;;12.05;2.72;;;;;;;;;;5063087;28;20063;-74
2022/12/15 04:03:36;;;;;;;8.55;2.38;;;;;;;;;;5067705;28;20053;-74
2022/12/15 04:06:02;;;;;;;3.78;1.90;;;;;;;;;;5057210;28;20052;-74
2022/12/15 04:08:28;;;;;;;5.13;1.73;;;;;;;;;;5069133;28;20549;-74
2022/12/15 04:10:54;;;;;;;5.40;1.92;;;;;;;;;;5068465;28;20036;-74
2022/12/15 04:13:20;;;;;;;4.30;1.88;;;;;;;;;;5069192;28;20098;-74
2022/12/15 04:15:46;;;;;;;7.20;2.05;;;;;;;;;;5066345;28;20041;-74
2022/12/15 04:18:12;;;;;;;5.72;2.25;;;;;;;;;;5070084;28;20060;-74
2022/12/15 04:20:39;;;;;;;8.23;2.40;;;;;;;;;;5066265;28;20094;-74
2022/12/15 04:23:08;;;;;;;8.02;1.92;;;;;;;;;;5076642;28;20542;-74
2022/12/15 05:31:52;;;;;;;7.03;2.38;;;;;;;;;;5064700;28;20045;-73
2022/12/15 05:34:28;;;;;;;4.68;1.92;;;;;;;;;;5069160;28;20382;-73
2022/12/15 05:36:55;;;;;;;7.10;2.00;;;;;;;;;;5056247;28;20480;-74
2022/12/15 05:39:21;;;;;;;6.97;2.30;;;;;;;;;;5069395;28;20040;-74
2022/12/15 05:41:47;;;;;;;8.88;2.35;;;;;;;;;;5070289;28;20044;-73
2022/12/15 05:44:13;;;;;;;5.88;1.80;;;;;;;;;;5068961;28;20063;-74
2022/12/15 05:46:39;;;;;;;6.85;2.00;;;;;;;;;;5068293;28;20404;-74
2022/12/15 05:49:06;;;;;;;7.22;2.10;;;;;;;;;;5070146;28;20048;-74
2022/12/15 05:51:32;;;;;;;12.02;2.00;;;;;;;;;;5069159;28;20029;-74
2022/12/15 05:53:58;;;;;;;5.75;2.20;;;;;;;;;;5053293;28;20079;-74
2022/12/15 05:56:25;;;;;;;8.90;2.33;;;;;;;;;;5066554;28;20072;-74
2022/12/15 05:58:51;;;;;;;7.68;1.85;;;;;;;;;;5066917;28;20135;-74
2022/12/15 06:01:17;;;;;;;8.65;2.53;;;;;;;;;;5069278;28;20116;-74
2022/12/15 06:03:44;;;;;;;8.88;2.10;;;;;;;;;;5069047;28;20059;-74
2022/12/15 06:06:11;;;;;;;11.70;2.30;;;;;;;;;;5068132;28;20052;-74
2022/12/15 06:08:40;;;;;;;8.45;2.20;;;;;;;;;;5070193;28;20480;-74
2022/12/15 06:11:06;;;;;;;15.48;6.47;;;;;;;;;;5058958;28;20067;-74
2022/12/15 06:13:33;;;;;;;10.35;2.47;;;;;;;;;;5070718;28;20049;-75
2022/12/15 06:16:01;;;;;;;6.28;2.10;;;;;;;;;;5051245;28;20559;-74
2022/12/15 06:18:38;;;;;;;6.63;2.45;;;;;;;;;;5058239;28;20062;-75
2022/12/15 06:21:06;;;;;;;5.50;1.83;;;;;;;;;;5061576;28;20083;-74
2022/12/15 06:23:33;;;;;;;9.07;3.00;;;;;;;;;;5056218;28;20135;-74
2022/12/15 06:25:59;;;;;;;4.47;2.35;;;;;;;;;;5058547;28;20043;-75
2022/12/15 06:28:26;;;;;;;10.98;2.60;;;;;;;;;;5058808;28;20072;-75
2022/12/15 06:30:53;;;;;;;6.30;2.40;;;;;;;;;;5062114;28;20056;-74
2022/12/15 06:33:19;;;;;;;6.45;2.00;;;;;;;;;;5063968;28;20106;-74
2022/12/15 06:35:45;;;;;;;6.22;2.00;;;;;;;;;;5069992;28;20410;-74
2022/12/15 06:38:11;;;;;;;9.02;2.22;;;;;;;;;;5068693;28;20048;-75
2022/12/15 06:40:38;;;;;;;5.43;2.10;;;;;;;;;;5067326;28;20505;-75
2022/12/15 06:43:04;;;;;;;11.43;2.22;;;;;;;;;;5058343;28;20070;-76
2022/12/15 06:45:30;;;;;;;6.47;2.33;;;;;;;;;;5058126;28;20068;-74
2022/12/15 06:47:56;;;;;;;6.32;2.13;;;;;;;;;;5064940;28;20076;-74
2022/12/15 06:50:22;;;;;;;7.47;2.30;;;;;;;;;;5065007;28;20126;-75
2022/12/15 06:52:48;;;;;;;9.07;2.40;;;;;;;;;;5061422;28;20048;-75
2022/12/15 06:55:14;;;;;;;9.35;2.53;;;;;;;;;;5065783;28;20131;-75
2022/12/15 06:57:40;;;;;;;13.75;2.30;;;;;;;;;;5060696;28;20051;-75
2022/12/15 07:00:06;;;;;;;10.32;2.20;;;;;;;;;;5052581;28;20045;-75
2022/12/15 07:02:33;;;;;;;4.35;2.10;;;;;;;;;;5061692;28;20114;-75
2022/12/15 07:04:59;;;;;;;7.90;2.25;;;;;;;;;;5069600;28;20105;-75
2022/12/15 07:07:26;;;;;;;11.93;2.50;;;;;;;;;;5069671;28;20036;-75
2022/12/15 07:09:52;;;;;;;10.55;3.03;;;;;;;;;;5059740;28;20182;-75
2022/12/15 07:12:18;;;;;;;9.82;2.60;;;;;;;;;;5061333;28;20131;-75
2022/12/15 07:14:44;;;;;;;7.05;2.55;;;;;;;;;;5060849;28;20127;-75
2022/12/15 07:17:10;;;;;;;8.02;2.05;;;;;;;;;;5063464;28;20317;-75
2022/12/15 07:19:36;;;;;;;5.85;1.77;;;;;;;;;;5064736;28;20478;-75
2022/12/15 07:22:02;;;;;;;4.05;1.90;;;;;;;;;;5063958;28;20053;-75
2022/12/15 07:24:28;;;;;;;6.25;2.25;;;;;;;;;;5061324;28;20133;-75
2022/12/15 07:26:54;;;;;;;7.25;2.03;;;;;;;;;;5068572;28;20036;-75
2022/12/15 07:29:20;;;;;;;4.82;1.85;;;;;;;;;;5067685;28;20055;-75
2022/12/15 07:31:46;;;;;;;7.00;2.30;;;;;;;;;;5067310;28;20037;-75
2022/12/15 07:34:12;;;;;;;4.97;1.92;;;;;;;;;;5067789;28;20539;-75
2022/12/15 07:36:39;;;;;;;6.72;2.20;;;;;;;;;;5069545;28;20052;-75
2022/12/15 07:39:05;;;;;;;5.47;2.00;;;;;;;;;;5073196;28;20044;-75
2022/12/15 07:41:31;;;;;;;8.55;1.90;;;;;;;;;;5072586;28;20063;-75
2022/12/15 07:43:57;;;;;;;5.90;2.15;;;;;;;;;;5071187;28;20083;-75
2022/12/15 07:46:25;;;;;;;5.75;2.10;;;;;;;;;;5069088;28;20032;-75
2022/12/15 07:48:52;;;;;;;6.13;2.30;;;;;;;;;;5071073;28;20041;-75
2022/12/15 07:51:19;;;;;;;3.22;1.85;;;;;;;;;;5068350;28;20052;-75
2022/12/15 07:53:45;;;;;;;5.85;2.00;;;;;;;;;;5065276;28;20044;-75
2022/12/15 07:56:11;;;;;;;5.75;1.65;;;;;;;;;;5067800;28;20037;-75
2022/12/15 07:58:37;;;;;;;7.38;2.03;;;;;;;;;;5068975;28;20037;-75
2022/12/15 08:01:08;;;;;;;4.25;1.67;;;;;;;;;;5061359;28;20048;-75
2022/12/15 08:03:34;;;;;;;5.93;1.98;;;;;;;;;;5066523;28;20119;-75
2022/12/15 08:06:08;;;;;;;7.43;2.65;;;;;;;;;;5064481;28;20040;-75
2022/12/15 08:08:35;;;;;;;6.63;2.38;;;;;;;;;;5068219;28;20048;-75
2022/12/15 08:11:08;;;;;;;9.60;2.00;;;;;;;;;;5067329;28;20130;-75
2022/12/15 08:13:34;;;;;;;5.32;2.10;;;;;;;;;;5066947;28;20049;-75
2022/12/15 08:16:00;;;;;;;7.00;2.38;;;;;;;;;;5066717;28;20056;-75
2022/12/15 08:18:26;;;;;;;8.65;2.20;;;;;;;;;;5070209;28;20116;-75
2022/12/15 08:20:52;;;;;;;10.55;2.40;;;;;;;;;;5069568;28;20198;-75
2022/12/15 08:23:18;;;;;;;7.40;2.00;;;;;;;;;;5063790;28;20136;-76
2022/12/15 08:25:44;;;;;;;5.78;2.47;;;;;;;;;;5070094;28;20139;-75
2022/12/15 08:28:10;;;;;;;6.07;2.40;;;;;;;;;;5067712;28;20125;-76
2022/12/15 08:30:36;;;;;;;8.35;2.00;;;;;;;;;;5062860;28;20072;-76
2022/12/15 08:33:03;;;;;;;7.93;2.50;;;;;;;;;;5065771;28;20143;-76
2022/12/15 08:35:29;;;;;;;7.03;2.15;;;;;;;;;;5062595;28;20460;-76
2022/12/15 08:37:55;;;;;;;4.72;2.22;;;;;;;;;;5067153;28;20043;-76
2022/12/15 08:40:21;;;;;;;7.90;2.40;;;;;;;;;;5067694;28;20123;-76
2022/12/15 08:42:47;;;;;;;5.78;2.28;;;;;;;;;;5070543;28;20536;-77
2022/12/15 08:45:13;;;;;;;5.03;2.03;;;;;;;;;;5061633;28;20128;-77
2022/12/15 08:47:39;;;;;;;7.63;2.17;;;;;;;;;;5066593;28;20102;-77
2022/12/15 08:50:06;;;;;;;6.68;2.63;;;;;;;;;;5066305;28;20473;-77
2022/12/15 08:52:33;;;;;;;7.45;2.75;;;;;;;;;;5066644;28;20052;-76
2022/12/15 08:54:59;;;;;;;8.40;2.88;;;;;;;;;;5065275;28;20493;-76
2022/12/15 08:57:25;;;;;;;8.55;2.30;;;;;;;;;;5065416;28;20063;-77
2022/12/15 08:59:51;;;;;;;9.27;2.38;;;;;;;;;;5065732;28;20109;-77
2022/12/15 09:02:17;;;;;;;7.53;2.25;;;;;;;;;;5065408;28;20044;-77
2022/12/15 09:04:44;;;;;;;6.65;2.15;;;;;;;;;;5068921;28;20411;-77
2022/12/15 09:07:10;;;;;;;6.50;2.08;;;;;;;;;;5064013;28;20543;-77
2022/12/15 09:09:36;;;;;;;6.63;2.17;;;;;;;;;;5062666;28;20044;-77
2022/12/15 09:12:02;;;;;;;7.32;1.80;;;;;;;;;;5061235;28;20052;-77
2022/12/15 09:14:28;;;;;;;7.18;2.40;;;;;;;;;;5065585;28;20396;-77
2022/12/15 09:16:54;;;;;;;7.47;2.25;;;;;;;;;;5065920;28;20041;-77
2022/12/15 09:19:20;;;;;;;8.52;2.22;;;;;;;;;;5066576;28;20048;-77
2022/12/15 09:21:47;;;;;;;7.25;2.10;;;;;;;;;;5066137;28;20037;-77
2022/12/15 09:24:13;;;;;;;8.27;2.10;;;;;;;;;;5066662;28;20460;-77
2022/12/15 09:26:41;;;;;;;6.75;2.35;;;;;;;;;;5066942;28;20049;-77
2022/12/15 09:29:10;;;;;;;5.55;1.95;;;;;;;;;;5064866;28;20071;-76
2022/12/15 09:31:37;;;;;;;13.07;2.55;;;;;;;;;;5063505;28;20040;-76
2022/12/15 09:34:03;;;;;;;4.95;2.33;;;;;;;;;;5063958;28;20059;-76
2022/12/15 09:36:31;;;;;;;6.18;2.28;;;;;;;;;;5067145;28;20063;-76
2022/12/15 09:38:57;;;;;;;8.13;2.58;;;;;;;;;;5069064;28;20055;-77
2022/12/15 09:41:27;;;;;;;6.90;2.28;;;;;;;;;;5068892;28;20055;-77
2022/12/15 09:44:04;;;;;;;7.25;2.75;;;;;;;;;;5066985;28;20481;-76
2022/12/15 09:46:30;;;;;;;3.45;2.00;;;;;;;;;;5066245;28;20056;-77
2022/12/15 09:48:58;;;;;;;7.72;2.35;;;;;;;;;;5061573;28;20646;-76
2022/12/15 09:51:30;;;;;;;6.45;2.35;;;;;;;;;;5063130;28;20044;-76
2022/12/15 09:53:56;;;;;;;8.10;3.58;;;;;;;;;;5064886;28;20045;-75
2022/12/15 09:56:41;;;;;;;7.38;2.78;;;;;;;;;;5063627;28;20072;-75
2022/12/15 09:59:16;;;;;;;10.20;2.92;;;;;;;;;;5065387;28;20052;-76
2022/12/15 10:01:42;;;;;;;9.52;3.58;;;;;;;;;;5065374;28;20454;-75
2022/12/15 10:04:25;;;;;;;11.65;2.95;;;;;;;;;;5059667;28;20123;-75
2022/12/15 10:07:02;;;;;;;7.10;2.20;;;;;;;;;;5059133;28;20366;-75
2022/12/15 10:09:30;;;;;;;7.05;2.30;;;;;;;;;;5058939;28;20048;-75
2022/12/15 10:11:59;;;;;;;7.72;2.58;;;;;;;;;;5061283;28;20033;-76
2022/12/15 10:14:34;;;;;;;7.32;2.28;;;;;;;;;;5062313;28;21186;-75
2022/12/15 10:17:22;;;;;;;6.68;2.40;;;;;;;;;;5064385;28;20048;-75
2022/12/15 10:19:51;;;;;;;13.20;2.72;;;;;;;;;;5066619;28;20172;-75
2022/12/15 10:22:23;;;;;;;8.10;2.35;;;;;;;;;;5058407;28;20481;-75
2022/12/15 10:24:49;;;;;;;7.78;2.53;;;;;;;;;;5065837;28;20165;-75
2022/12/15 10:27:18;;;;;;;7.43;2.58;;;;;;;;;;5066648;28;20068;-75
2022/12/15 10:29:44;;;;;;;6.07;2.08;;;;;;;;;;5053468;28;20045;-75
2022/12/15 10:32:15;;;;;;;8.70;2.75;;;;;;;;;;5057950;28;20106;-75
2022/12/15 10:34:42;;;;;;;7.85;2.40;;;;;;;;;;5062512;28;20141;-76
2022/12/15 10:37:13;;;;;;;12.25;2.53;;;;;;;;;;5061445;28;20060;-76
2022/12/15 10:39:42;;;;;;;8.25;2.35;;;;;;;;;;5060290;28;20040;-76
2022/12/15 10:42:10;;;;;;;6.65;2.40;;;;;;;;;;5060308;28;20048;-76
2022/12/15 10:44:37;;;;;;;10.57;2.55;;;;;;;;;;5069857;28;20511;-76
2022/12/15 10:47:19;;;;;;;7.10;2.15;;;;;;;;;;5064940;28;20051;-76
2022/12/15 10:49:45;;;;;;;9.98;2.10;;;;;;;;;;5063476;28;20051;-76
2022/12/15 10:52:22;;;;;;;5.43;2.20;;;;;;;;;;5065404;28;20133;-76
2022/12/15 10:54:50;;;;;;;8.88;2.40;;;;;;;;;;5067537;28;20044;-76
2022/12/15 10:57:30;;;;;;;6.13;2.13;;;;;;;;;;5070244;28;20059;-76
2022/12/15 11:00:14;;;;;;;9.13;2.17;;;;;;;;;;5065537;28;20471;-76
2022/12/15 11:02:41;;;;;;;5.90;2.03;;;;;;;;;;5070115;28;20051;-75
2022/12/15 11:05:16;;;;;;;8.70;2.22;;;;;;;;;;5063274;28;20461;-75
2022/12/15 11:07:47;;;;;;;6.60;2.28;;;;;;;;;;5061509;28;20499;-75
2022/12/15 11:10:16;;;;;;;6.60;2.13;;;;;;;;;;5058620;28;20088;-75
2022/12/15 11:12:51;;;;;;;5.40;2.25;;;;;;;;;;5075057;28;20107;-75
2022/12/15 11:15:26;;;;;;;10.02;2.60;;;;;;;;;;5061498;28;20044;-75
2022/12/15 11:17:58;;;;;;;6.03;2.30;;;;;;;;;;5063996;28;20098;-76
2022/12/15 11:20:30;;;;;;;5.88;2.42;;;;;;;;;;5069024;28;20037;-76
2022/12/15 11:23:00;;;;;;;7.80;2.15;;;;;;;;;;5065912;28;20040;-75
2022/12/15 11:25:41;;;;;;;10.43;2.33;;;;;;;;;;5064786;28;20048;-76
2022/12/15 11:28:19;;;;;;;7.25;2.35;;;;;;;;;;5059088;28;20052;-76
2022/12/15 11:30:48;;;;;;;4.88;2.55;;;;;;;;;;5057757;28;20040;-76
2022/12/15 11:33:14;;;;;;;11.98;2.60;;;;;;;;;;5069968;28;20502;-76
2022/12/15 11:35:43;;;;;;;9.73;2.72;;;;;;;;;;5063059;28;20040;-76
2022/12/15 11:38:19;;;;;;;6.45;2.20;;;;;;;;;;5065057;28;20528;-76
2022/12/15 11:40:45;;;;;;;11.55;2.50;;;;;;;;;;5070928;28;20227;-76
2022/12/15 11:43:20;;;;;;;7.68;2.22;;;;;;;;;;5065636;28;20055;-76
2022/12/15 11:45:53;;;;;;;8.23;3.40;;;;;;;;;;5068762;28;20496;-76
2022/12/15 11:48:21;;;;;;;4.95;2.50;;;;;;;;;;5066618;28;20041;-76
2022/12/15 11:50:57;;;;;;;7.18;2.60;;;;;;;;;;5065444;28;20102;-76
2022/12/15 11:53:44;;;;;;;9.15;2.67;;;;;;;;;;5063861;28;20044;-76
2022/12/15 11:56:10;;;;;;;7.57;2.10;;;;;;;;;;5066966;28;20037;-82
2022/12/15 11:58:39;;;;;;;7.97;2.33;;;;;;;;;;5068064;28;20044;-82
2022/12/15 12:01:11;;;;;;;5.85;2.47;;;;;;;;;;5064374;28;20040;-81
2022/12/15 12:03:47;;;;;;;4.55;2.70;;;;;;;;;;5067938;28;20053;-79
2022/12/15 12:06:42;;;;;;;10.07;2.72;;;;;;;;;;5067760;28;20071;-79
2022/12/15 12:09:16;;;;;;;10.77;3.10;;;;;;;;;;5026494;28;20045;-78
2022/12/15 12:11:45;;;;;;;10.40;2.33;;;;;;;;;;5067075;28;20064;-77
2022/12/15 12:14:14;;;;;;;9.55;2.75;;;;;;;;;;5068409;28;20045;-78
2022/12/15 12:16:48;;;;;;;8.32;2.40;;;;;;;;;;5064466;28;20452;-81
2022/12/15 12:19:18;;;;;;;8.30;2.30;;;;;;;;;;5063058;28;20131;-79
2022/12/15 12:21:53;;;;;;;6.60;2.72;;;;;;;;;;5070392;28;20036;-79
2022/12/15 12:24:43;;;;;;;7.00;2.58;;;;;;;;;;5068814;28;20048;-78
2022/12/15 12:27:27;;;;;;;9.45;2.55;;;;;;;;;;5057626;28;20106;-79
2022/12/15 12:30:20;;;;;;;10.70;3.58;;;;;;;;;;5064677;28;20131;-79
2022/12/15 12:32:56;;;;;;;11.25;2.53;;;;;;;;;;5059576;28;20055;-78
2022/12/15 12:35:40;;;;;;;14.55;2.90;;;;;;;;;;5061277;28;20190;-76
2022/12/15 12:38:09;;;;;;;8.75;2.75;;;;;;;;;;5069829;28;20170;-77
2022/12/15 12:40:38;;;;;;;12.63;2.92;;;;;;;;;;5070082;28;20127;-81
2022/12/15 12:43:04;;;;;;;8.52;2.20;;;;;;;;;;5066211;28;20048;-79
2022/12/15 12:45:33;;;;;;;6.65;2.50;;;;;;;;;;5069177;28;20040;-78
2022/12/15 12:48:02;;;;;;;10.25;2.60;;;;;;;;;;5068142;28;20137;-75
2022/12/15 12:50:29;;;;;;;12.13;2.78;;;;;;;;;;5063803;28;20048;-76
2022/12/15 12:53:00;;;;;;;10.15;3.03;;;;;;;;;;5061283;28;20500;-75
2022/12/15 12:55:26;;;;;;;6.43;2.05;;;;;;;;;;5059543;28;20052;-76
2022/12/15 12:57:53;;;;;;;7.55;2.80;;;;;;;;;;5056497;28;20040;-76
2022/12/15 13:00:26;;;;;;;16.55;4.00;;;;;;;;;;5056606;28;20045;-77
2022/12/15 13:02:54;;;;;;;16.20;2.92;;;;;;;;;;5055548;28;20571;-76
2022/12/15 13:05:28;;;;;;;10.23;3.42;;;;;;;;;;5051320;28;20056;-76
2022/12/15 13:07:54;;;;;;;9.00;2.88;;;;;;;;;;5055924;28;20037;-76
2022/12/15 13:10:22;;;;;;;8.77;2.97;;;;;;;;;;5055028;28;20049;-76
2022/12/15 13:12:52;;;;;;;6.97;2.10;;;;;;;;;;5051031;28;20052;-77
2022/12/15 13:15:28;;;;;;;6.90;2.22;;;;;;;;;;5053501;28;20048;-77
2022/12/15 13:17:55;;;;;;;5.40;2.20;;;;;;;;;;5057449;28;20075;-76
2022/12/15 13:20:26;;;;;;;8.05;2.30;;;;;;;;;;5060709;28;20051;-76
2022/12/15 13:22:52;;;;;;;6.57;2.05;;;;;;;;;;5058412;28;20059;-76
2022/12/15 13:25:36;;;;;;;7.93;1.90;;;;;;;;;;5063151;28;20431;-76
2022/12/15 13:28:15;;;;;;;5.13;2.17;;;;;;;;;;5056394;28;20134;-76
2022/12/15 13:31:00;;;;;;;8.23;1.95;;;;;;;;;;5058911;28;20045;-76
2022/12/15 13:33:26;;;;;;;8.27;1.85;;;;;;;;;;5061500;28;20484;-76
2022/12/15 13:35:52;;;;;;;8.98;2.30;;;;;;;;;;5059777;28;20446;-76
2022/12/15 13:38:18;;;;;;;11.18;2.40;;;;;;;;;;5056123;28;20052;-76
2022/12/15 13:40:47;;;;;;;17.90;2.55;;;;;;;;;;5069130;28;20040;-77
2022/12/15 13:43:26;;;;;;;2.50;1.40;;;;;;;;;;5065228;28;20045;-74
2022/12/15 13:45:54;;;;;;;6.25;1.90;;;;;;;;;;5054806;28;20036;-74
2022/12/15 13:48:39;;;;;;;6.38;1.92;;;;;;;;;;5059178;28;20083;-74
2022/12/15 13:51:19;;;;;;;8.50;2.05;;;;;;;;;;5067861;28;20092;-74
2022/12/15 13:53:52;;;;;;;8.40;2.42;;;;;;;;;;5066462;28;20053;-74
2022/12/15 13:56:37;;;;;;;6.88;2.00;;;;;;;;;;5066210;28;20049;-74
2022/12/15 13:59:06;;;;;;;14.00;2.80;;;;;;;;;;5071112;28;20198;-74
2022/12/15 14:01:32;;;;;;;9.52;2.30;;;;;;;;;;5079418;28;20403;-74
2022/12/15 14:04:03;;;;;;;6.45;2.10;;;;;;;;;;5063267;28;20052;-74
2022/12/15 14:06:34;;;;;;;8.93;1.98;;;;;;;;;;5054274;28;20131;-74
2022/12/15 14:09:00;;;;;;;6.55;1.80;;;;;;;;;;5059909;28;20048;-74
2022/12/15 14:11:29;;;;;;;7.65;1.80;;;;;;;;;;5057387;28;20455;-73
2022/12/15 14:13:58;;;;;;;5.35;2.10;;;;;;;;;;5055406;28;20089;-73
2022/12/15 14:16:25;;;;;;;3.30;1.75;;;;;;;;;;5057174;28;20040;-74
2022/12/15 14:19:04;;;;;;;8.13;2.10;;;;;;;;;;5059750;28;20041;-73
2022/12/15 14:21:30;;;;;;;6.95;2.35;;;;;;;;;;5058834;28;20491;-74
2022/12/15 14:23:56;;;;;;;5.30;2.13;;;;;;;;;;5055426;28;20157;-74
2022/12/15 14:26:26;;;;;;;4.55;2.10;;;;;;;;;;5058681;28;20075;-74
2022/12/15 14:28:59;;;;;;;1.98;1.67;;;;;;;;;;5057926;28;20036;-73
2022/12/15 14:31:28;;;;;;;2.47;1.55;;;;;;;;;;5059720;28;20087;-73
2022/12/15 14:34:02;;;;;;;3.15;1.70;;;;;;;;;;5055931;28;20396;-74
2022/12/15 14:36:29;;;;;;;4.82;1.73;;;;;;;;;;5061137;28;20542;-73
2022/12/15 14:39:04;;;;;;;3.05;1.30;;;;;;;;;;5061602;28;20489;-73
2022/12/15 14:41:35;;;;;;;5.78;1.70;;;;;;;;;;5060476;28;20045;-74
2022/12/15 14:44:04;;;;;;;4.75;1.92;;;;;;;;;;5065030;28;20137;-72
2022/12/15 14:46:40;;;;;;;4.57;1.90;;;;;;;;;;5063882;28;20357;-73
2022/12/15 14:49:08;;;;;;;4.18;1.60;;;;;;;;;;5055646;28;20047;-73
2022/12/15 14:51:42;;;;;;;5.35;1.60;;;;;;;;;;5064015;28;20119;-73
2022/12/15 14:54:26;;;;;;;1.95;1.75;;;;;;;;;;5060062;28;20040;-73
2022/12/15 14:56:59;;;;;;;3.90;1.52;;;;;;;;;;5078101;28;20396;-73
2022/12/15 14:59:30;;;;;;;3.53;1.60;;;;;;;;;;5068456;28;20076;-74
2022/12/15 15:02:08;;;;;;;3.28;1.70;;;;;;;;;;5064859;28;20052;-73
2022/12/15 15:04:34;;;;;;;2.72;1.40;;;;;;;;;;5075267;28;20037;-74
2022/12/15 15:07:01;;;;;;;2.97;2.00;;;;;;;;;;5069053;28;20040;-74
2022/12/15 15:09:27;;;;;;;3.45;2.20;;;;;;;;;;5073308;28;20056;-74
2022/12/15 15:11:55;;;;;;;2.83;1.42;;;;;;;;;;5060445;28;20041;-74
2022/12/15 15:14:24;;;;;;;4.13;1.50;;;;;;;;;;5056733;28;20663;-73
2022/12/15 15:17:08;;;;;;;6.57;1.50;;;;;;;;;;5063111;28;20519;-76
2022/12/15 15:19:36;;;;;;;3.13;2.05;;;;;;;;;;5072902;28;20136;-75
2022/12/15 15:22:02;;;;;;;3.25;1.80;;;;;;;;;;5059339;28;20040;-74
2022/12/15 15:24:36;;;;;;;5.93;2.28;;;;;;;;;;5072596;28;20086;-75
2022/12/15 15:27:38;;;;;;;4.30;2.40;;;;;;;;;;5062026;28;20045;-74
2022/12/15 15:30:15;;;;;;;4.55;2.72;;;;;;;;;;5030958;28;20444;-74
2022/12/15 15:32:54;;;;;;;6.97;2.78;;;;;;;;;;5060355;28;20040;-75
2022/12/15 15:35:21;;;;;;;13.02;5.90;;;;;;;;;;5063007;28;20538;-74
2022/12/15 15:37:47;;;;;;;12.10;4.95;;;;;;;;;;5062184;28;20496;-75
2022/12/15 15:40:14;;;;;;;8.32;3.85;;;;;;;;;;5064871;28;20499;-74
2022/12/15 15:42:41;;;;;;;5.38;2.50;;;;;;;;;;5066893;28;20039;-74
2022/12/15 15:45:12;;;;;;;6.43;4.25;;;;;;;;;;5058238;28;20076;-75
2022/12/15 15:47:39;;;;;;;8.13;2.75;;;;;;;;;;5063839;28;20040;-75
2022/12/15 15:50:05;;;;;;;13.23;3.03;;;;;;;;;;5059064;28;20048;-74
2022/12/15 15:52:32;;;;;;;10.07;3.60;;;;;;;;;;5061956;28;20049;-75
2022/12/15 15:54:59;;;;;;;4.72;2.53;;;;;;;;;;5071922;28;20044;-74
2022/12/15 15:57:25;;;;;;;6.55;2.10;;;;;;;;;;5069865;28;20090;-74
2022/12/15 15:59:51;;;;;;;3.75;1.60;;;;;;;;;;5058083;28;20045;-73
2022/12/15 16:02:17;;;;;;;5.32;1.60;;;;;;;;;;5063771;28;20053;-73
2022/12/15 16:04:44;;;;;;;2.88;1.40;;;;;;;;;;5064153;28;20044;-74
2022/12/15 16:07:21;;;;;;;3.35;1.85;;;;;;;;;;5070607;28;20102;-73
2022/12/15 16:09:47;;;;;;;2.13;1.70;;;;;;;;;;5063092;28;20056;-74
2022/12/15 16:12:22;;;;;;;4.72;1.50;;;;;;;;;;5065298;28;20051;-75
2022/12/15 16:14:48;;;;;;;2.03;1.80;;;;;;;;;;5072071;28;20049;-74
2022/12/15 16:17:16;;;;;;;2.65;1.50;;;;;;;;;;5068772;28;20127;-73
2022/12/15 16:19:42;;;;;;;2.53;1.40;;;;;;;;;;5069514;28;20039;-72
2022/12/15 16:22:13;;;;;;;7.25;2.35;;;;;;;;;;5061321;28;20400;-75
2022/12/15 16:24:39;;;;;;;5.07;1.70;;;;;;;;;;5065250;28;20045;-75
2022/12/15 16:27:05;;;;;;;4.68;1.40;;;;;;;;;;5067504;28;20044;-76
2022/12/15 16:29:31;;;;;;;7.75;1.60;;;;;;;;;;5067687;28;20109;-76
2022/12/15 16:31:57;;;;;;;4.22;1.67;;;;;;;;;;5066745;28;20392;-76
2022/12/15 16:34:23;;;;;;;3.53;1.75;;;;;;;;;;5063198;28;20044;-75
2022/12/15 16:36:49;;;;;;;3.78;1.85;;;;;;;;;;5062323;28;20051;-75
2022/12/15 16:39:24;;;;;;;5.65;1.70;;;;;;;;;;5066807;28;20040;-76
2022/12/15 16:41:51;;;;;;;4.22;1.60;;;;;;;;;;5067059;28;20113;-75
2022/12/15 16:44:17;;;;;;;2.33;1.50;;;;;;;;;;5062732;28;20106;-75
2022/12/15 16:46:44;;;;;;;3.35;1.83;;;;;;;;;;5064794;28;20516;-76
2022/12/15 16:49:10;;;;;;;1.73;1.45;;;;;;;;;;5063456;28;20064;-76
2022/12/15 16:51:38;;;;;;;3.03;1.58;;;;;;;;;;5052609;28;20401;-76
2022/12/15 16:54:05;;;;;;;3.63;1.60;;;;;;;;;;5059006;28;20116;-76
2022/12/15 16:56:31;;;;;;;3.60;1.60;;;;;;;;;;5072920;28;20098;-76
2022/12/15 16:58:57;;;;;;;3.25;1.58;;;;;;;;;;5066122;28;20048;-75
2022/12/15 17:01:23;;;;;;;2.50;1.50;;;;;;;;;;5070652;28;20502;-76
2022/12/15 17:03:49;;;;;;;2.85;2.08;;;;;;;;;;5057604;28;20044;-76
2022/12/15 17:06:16;;;;;;;6.13;2.88;;;;;;;;;;5062142;28;20053;-76
2022/12/15 17:08:53;;;;;;;4.70;1.73;;;;;;;;;;5053087;28;20076;-76